createdAt,value
2023-03-17T00:10:45.901Z,72.56
2023-03-17T00:25:46.656Z,74.15
2023-03-17T00:40:46.822Z,73.53
2023-03-17T00:55:46.999Z,74.15
2023-03-17T01:10:47.540Z,74.15
2023-03-17T01:25:47.998Z,73.43
2023-03-17T01:40:49.302Z,74.15
2023-03-17T01:55:50.525Z,73.53
2023-03-17T02:10:53.375Z,73.63
2023-03-17T02:25:53.619Z,73.43
2023-03-17T02:40:54.411Z,73.43
2023-03-17T02:55:54.618Z,73.63
2023-03-17T03:10:55.304Z,73.84
2023-03-17T03:25:55.973Z,73.22
2023-03-17T03:40:56.563Z,74.02
2023-03-17T03:55:56.756Z,73.94
2023-03-17T04:10:56.550Z,73.01
2023-03-17T04:25:57.174Z,73.43
2023-03-17T04:40:57.191Z,73.84
2023-03-17T04:55:57.801Z,73.67
2023-03-17T05:10:58.654Z,73.98
2023-03-17T05:26:04.555Z,73.25
2023-03-17T05:41:04.739Z,73.05
2023-03-17T05:56:04.964Z,72.39
2023-03-17T06:11:05.405Z,71.25
2023-03-17T06:26:05.812Z,70.91
2023-03-17T06:41:06.269Z,69.74
2023-03-17T06:56:19.982Z,68.36
2023-03-17T07:11:13.894Z,68.12
2023-03-17T07:26:14.089Z,66.72
2023-03-17T07:41:14.384Z,65.03
2023-03-17T07:56:14.694Z,64.77
2023-03-17T08:11:15.597Z,63.57
2023-03-17T08:26:16.430Z,62.31
2023-03-17T08:41:17.699Z,62.07
2023-03-17T08:56:18.106Z,62.46
2023-03-17T09:11:18.715Z,59.73
2023-03-17T09:26:20.078Z,60.08
2023-03-17T09:41:21.010Z,58.46
2023-03-17T09:56:21.160Z,56.54
2023-03-17T10:11:21.762Z,53.95
2023-03-17T10:26:22.013Z,52.25
2023-03-17T10:41:22.985Z,52.20
2023-03-17T10:56:23.209Z,49.78
2023-03-17T11:11:23.748Z,49.43
2023-03-17T11:26:24.360Z,48.65
2023-03-17T11:41:25.332Z,49.41
2023-03-17T11:56:25.558Z,48.27
2023-03-17T12:11:26.456Z,47.64
2023-03-17T12:26:26.148Z,46.83
2023-03-17T12:41:27.193Z,49.62
2023-03-17T12:56:26.953Z,48.71
2023-03-17T13:11:27.420Z,49.84
2023-03-17T13:26:27.976Z,49.62
2023-03-17T13:41:28.557Z,51.19
2023-03-17T13:56:28.761Z,50.31
2023-03-17T14:11:29.237Z,50.18
2023-03-17T14:26:29.825Z,51.70
2023-03-17T14:41:32.266Z,51.93
2023-03-17T14:56:34.103Z,52.05
2023-03-17T15:11:34.604Z,51.87
2023-03-17T15:26:35.243Z,52.61
2023-03-17T15:41:36.283Z,52.23
2023-03-17T15:56:37.703Z,53.88
2023-03-17T16:11:40.365Z,54.21
2023-03-17T16:26:40.985Z,54.00
2023-03-17T16:41:41.591Z,53.72
2023-03-17T16:56:42.416Z,54.57
2023-03-17T17:11:42.910Z,54.08
2023-03-17T17:26:43.770Z,54.41
2023-03-17T17:41:43.977Z,54.74
2023-03-17T17:56:44.604Z,54.92
2023-03-17T18:11:45.163Z,54.03
2023-03-17T18:26:45.770Z,55.69
2023-03-17T18:41:46.618Z,56.40
2023-03-17T18:56:47.602Z,56.94
2023-03-17T19:11:48.114Z,57.24
2023-03-17T19:26:48.833Z,57.98
2023-03-17T19:41:49.938Z,58.62
2023-03-17T19:56:51.004Z,58.93
2023-03-17T20:11:51.597Z,59.47
2023-03-17T20:26:51.722Z,60.31
2023-03-17T20:41:52.459Z,61.54
2023-03-17T20:56:54.410Z,62.49
2023-03-17T21:11:55.445Z,63.34
2023-03-17T21:26:56.179Z,63.88
2023-03-17T21:41:57.132Z,64.60
2023-03-17T21:56:57.432Z,65.31
2023-03-17T22:11:57.889Z,66.47
2023-03-17T22:26:58.483Z,67.22
2023-03-17T22:41:59.132Z,67.63
2023-03-17T22:56:59.744Z,67.66
2023-03-17T23:12:00.366Z,67.86
2023-03-17T23:27:00.934Z,68.38
2023-03-17T23:42:01.481Z,68.62
2023-03-17T23:57:02.121Z,68.30
